createdAt,value
2018-07-17T00:00:11.155Z,100019.59
2018-07-17T00:01:17.230Z,100019.63
2018-07-17T00:02:23.235Z,100020.91
2018-07-17T00:03:29.583Z,100022.02
2018-07-17T00:04:35.767Z,100027.24
2018-07-17T00:05:41.960Z,100020.96
2018-07-17T00:06:47.288Z,100020.55
2018-07-17T00:07:53.274Z,100017.89
2018-07-17T00:08:59.595Z,100024.30
2018-07-17T00:10:05.137Z,100016.14
2018-07-17T00:11:11.147Z,100017.98
2018-07-17T00:12:16.817Z,100020.80
2018-07-17T00:13:22.831Z,100019.36
2018-07-17T00:14:28.414Z,100016.70
2018-07-17T00:15:35.322Z,100015.66
2018-07-17T00:16:41.328Z,100019.50
2018-07-17T00:17:47.340Z,100015.81
2018-07-17T00:18:53.323Z,100025.16
2018-07-17T00:19:59.338Z,100022.91
2018-07-17T00:21:04.959Z,100019.70
2018-07-17T00:22:10.918Z,100019.89
2018-07-17T00:23:16.886Z,100022.95
2018-07-17T00:24:23.124Z,100029.67
2018-07-17T00:25:32.124Z,100025.58
2018-07-17T00:26:38.108Z,100026.80
2018-07-17T00:27:44.096Z,100020.27
2018-07-17T00:28:50.142Z,100020.78
2018-07-17T00:29:56.141Z,100024.50
2018-07-17T00:31:02.429Z,100022.40
2018-07-17T00:32:08.388Z,100021.39
2018-07-17T00:33:14.649Z,100022.94
2018-07-17T00:34:20.703Z,100020.05
2018-07-17T00:35:26.694Z,100023.91
2018-07-17T00:36:32.683Z,100022.70
2018-07-17T00:37:38.675Z,100026.03
2018-07-17T00:38:44.934Z,100035.44
2018-07-17T00:39:51.176Z,100038.03
2018-07-17T00:40:56.827Z,100035.06
2018-07-17T00:42:02.788Z,100036.05
2018-07-17T00:43:08.808Z,100036.23
2018-07-17T00:44:14.802Z,100036.36
2018-07-17T00:45:20.819Z,100035.94
2018-07-17T00:46:27.561Z,100037.05
2018-07-17T00:47:33.161Z,100034.13
2018-07-17T00:48:39.439Z,100036.73
2018-07-17T00:49:45.426Z,100044.03
2018-07-17T00:50:51.658Z,100045.07
2018-07-17T00:51:57.625Z,100057.80
2018-07-17T00:53:03.597Z,100056.63
2018-07-17T00:54:09.848Z,100049.28
2018-07-17T00:55:15.882Z,100045.21
2018-07-17T00:56:21.860Z,100041.81
2018-07-17T00:57:27.818Z,100034.11
2018-07-17T00:58:33.806Z,100030.44
2018-07-17T00:59:42.775Z,100027.09
2018-07-17T01:00:48.244Z,100030.17
2018-07-17T01:01:58.447Z,100025.67
2018-07-17T01:03:09.367Z,100025.64
2018-07-17T01:04:21.097Z,100033.25
2018-07-17T01:05:32.670Z,100020.83
2018-07-17T01:06:44.158Z,100026.38
2018-07-17T01:07:55.527Z,100024.69
2018-07-17T01:09:07.225Z,100029.43
2018-07-17T01:10:18.564Z,100025.39
2018-07-17T01:11:30.023Z,100023.16
2018-07-17T01:12:35.232Z,100027.33
2018-07-17T01:13:41.000Z,100034.23
2018-07-17T01:14:46.706Z,100028.59
2018-07-17T01:15:52.140Z,100033.52
2018-07-17T01:16:58.093Z,100033.89
2018-07-17T01:18:03.161Z,100023.76
2018-07-17T01:19:09.466Z,100027.66
2018-07-17T01:20:14.747Z,100028.06
2018-07-17T01:21:20.671Z,100030.30
2018-07-17T01:22:26.644Z,100027.11
2018-07-17T01:23:32.650Z,100033.09
2018-07-17T01:24:38.677Z,100037.28
2018-07-17T01:25:44.674Z,100031.95
2018-07-17T01:26:50.659Z,100034.66
2018-07-17T01:27:56.613Z,100030.30
2018-07-17T01:29:02.619Z,100030.95
2018-07-17T01:30:08.906Z,100032.16
2018-07-17T01:31:14.925Z,100026.41
2018-07-17T01:32:20.920Z,100023.50
2018-07-17T01:33:27.157Z,100023.25
2018-07-17T01:34:33.135Z,100031.83
2018-07-17T01:35:39.164Z,100023.05
2018-07-17T01:36:45.101Z,100027.42
2018-07-17T01:37:51.047Z,100027.95
2018-07-17T01:38:57.035Z,100024.69
2018-07-17T01:40:03.346Z,100031.05
2018-07-17T01:41:09.396Z,100037.58
2018-07-17T01:42:15.370Z,100029.58
2018-07-17T01:43:21.355Z,100034.33
2018-07-17T01:44:27.345Z,100033.02
2018-07-17T01:45:33.824Z,100023.87
2018-07-17T01:46:39.818Z,100025.05
2018-07-17T01:47:45.798Z,100024.67
2018-07-17T01:48:52.046Z,100020.69
2018-07-17T01:49:58.021Z,100017.42
2018-07-17T01:51:04.239Z,100021.50
2018-07-17T01:52:09.867Z,100023.71
2018-07-17T01:53:15.844Z,100032.22
2018-07-17T01:54:21.849Z,100032.02
2018-07-17T01:55:27.854Z,100032.13
2018-07-17T01:56:33.448Z,100033.20
2018-07-17T01:57:39.457Z,100031.35
2018-07-17T01:58:45.473Z,100027.04
2018-07-17T01:59:51.489Z,100031.02
2018-07-17T02:00:57.823Z,100027.94
2018-07-17T02:02:03.186Z,100024.77
2018-07-17T02:03:09.760Z,100024.77
2018-07-17T02:04:15.745Z,100020.60
2018-07-17T02:05:21.780Z,100019.59
2018-07-17T02:06:27.753Z,100025.85
2018-07-17T02:07:33.723Z,100026.12
2018-07-17T02:08:39.665Z,100032.80
2018-07-17T02:09:45.658Z,100023.80
2018-07-17T02:10:51.627Z,100023.00
2018-07-17T02:11:57.657Z,100023.87
2018-07-17T02:13:03.924Z,100021.70
2018-07-17T02:14:09.947Z,100019.91
2018-07-17T02:15:15.908Z,100017.34
2018-07-17T02:16:21.918Z,100019.27
2018-07-17T02:17:27.880Z,100026.66
2018-07-17T02:18:33.860Z,100021.50
2018-07-17T02:19:39.872Z,100025.60
2018-07-17T02:20:45.850Z,100025.22
2018-07-17T02:21:51.821Z,100025.02
2018-07-17T02:22:57.846Z,100027.44
2018-07-17T02:24:04.140Z,100023.99
2018-07-17T02:25:10.129Z,100024.32
2018-07-17T02:26:17.009Z,100026.02
2018-07-17T02:27:23.021Z,100018.22
2018-07-17T02:28:29.005Z,100021.70
2018-07-17T02:29:35.067Z,100025.59
2018-07-17T02:30:41.040Z,100024.52
2018-07-17T02:31:46.666Z,100024.66
2018-07-17T02:32:52.919Z,100028.51
2018-07-17T02:33:59.137Z,100027.53
2018-07-17T02:35:04.466Z,100025.58
2018-07-17T02:36:10.443Z,100031.25
2018-07-17T02:37:16.013Z,100035.48
2018-07-17T02:38:21.629Z,100037.05
2018-07-17T02:39:27.627Z,100040.04
2018-07-17T02:40:33.629Z,100044.00
2018-07-17T02:41:39.304Z,100041.66
2018-07-17T02:42:45.544Z,100039.83
2018-07-17T02:43:51.498Z,100043.87
2018-07-17T02:44:57.811Z,100035.45
2018-07-17T02:46:03.763Z,100033.10
2018-07-17T02:47:09.771Z,100034.41
2018-07-17T02:48:15.987Z,100035.59
2018-07-17T02:49:21.981Z,100038.52
2018-07-17T02:50:27.967Z,100036.27
2018-07-17T02:51:33.958Z,100036.78
2018-07-17T02:52:39.900Z,100035.81
2018-07-17T02:53:46.126Z,100040.91
2018-07-17T02:54:52.117Z,100040.31
2018-07-17T02:55:58.155Z,100039.02
2018-07-17T02:57:04.106Z,100029.92
2018-07-17T02:58:10.111Z,100034.72
2018-07-17T02:59:16.097Z,100037.05
2018-07-17T03:00:22.113Z,100034.77
2018-07-17T03:01:28.123Z,100032.69
2018-07-17T03:02:34.148Z,100031.68
2018-07-17T03:03:40.537Z,100031.41
2018-07-17T03:04:46.539Z,100031.00
2018-07-17T03:05:52.527Z,100029.98
2018-07-17T03:06:58.580Z,100034.15
2018-07-17T03:08:04.043Z,100031.84
2018-07-17T03:09:10.327Z,100032.52
2018-07-17T03:10:15.973Z,100034.63
2018-07-17T03:11:22.016Z,100028.41
2018-07-17T03:12:27.984Z,100033.19
2018-07-17T03:13:33.975Z,100022.44
2018-07-17T03:14:39.995Z,100030.58
2018-07-17T03:15:46.280Z,100037.64
2018-07-17T03:16:52.265Z,100030.06
2018-07-17T03:17:58.225Z,100033.89
2018-07-17T03:19:03.484Z,100030.78
2018-07-17T03:20:09.492Z,100034.26
2018-07-17T03:21:15.477Z,100032.91
2018-07-17T03:22:21.453Z,100035.59
2018-07-17T03:23:27.411Z,100034.77
2018-07-17T03:24:33.698Z,100036.09
2018-07-17T03:25:39.940Z,100035.36
2018-07-17T03:26:45.924Z,100039.09
2018-07-17T03:27:51.918Z,100041.16
2018-07-17T03:28:57.867Z,100039.52
2018-07-17T03:30:03.798Z,100036.64
2018-07-17T03:31:09.793Z,100037.08
2018-07-17T03:32:15.755Z,100040.34
2018-07-17T03:33:21.989Z,100040.31
2018-07-17T03:34:27.984Z,100038.86
2018-07-17T03:35:33.992Z,100040.34
2018-07-17T03:36:39.994Z,100039.00
2018-07-17T03:37:45.294Z,100040.22
2018-07-17T03:38:51.806Z,100043.42
2018-07-17T03:39:58.359Z,100044.38
2018-07-17T03:41:04.358Z,100043.38
2018-07-17T03:42:10.346Z,100040.23
2018-07-17T03:43:16.342Z,100041.67
2018-07-17T03:44:22.416Z,100039.75
2018-07-17T03:45:28.436Z,100038.42
2018-07-17T03:46:34.419Z,100041.13
2018-07-17T03:47:40.102Z,100036.69
2018-07-17T03:48:46.060Z,100038.78
2018-07-17T03:49:52.074Z,100036.17
2018-07-17T03:50:58.354Z,100042.47
2018-07-17T03:52:03.964Z,100042.80
2018-07-17T03:53:09.960Z,100040.58
2018-07-17T03:54:16.279Z,100042.88
2018-07-17T03:55:22.339Z,100045.38
2018-07-17T03:56:28.301Z,100045.13
2018-07-17T03:57:34.487Z,100042.66
2018-07-17T03:58:40.462Z,100048.20
2018-07-17T03:59:46.471Z,100048.75
2018-07-17T04:00:52.531Z,100043.56
2018-07-17T04:01:58.548Z,100045.81
2018-07-17T04:03:04.856Z,100039.28
2018-07-17T04:04:10.926Z,100044.16
2018-07-17T04:05:16.607Z,100038.13
2018-07-17T04:06:22.609Z,100035.50
2018-07-17T04:07:28.592Z,100034.40
2018-07-17T04:08:34.698Z,100036.07
2018-07-17T04:09:40.842Z,100036.61
2018-07-17T04:10:46.552Z,100042.55
2018-07-17T04:11:52.641Z,100042.89
2018-07-17T04:12:58.600Z,100042.52
2018-07-17T04:14:04.242Z,100047.43
2018-07-17T04:15:09.905Z,100045.38
2018-07-17T04:16:15.936Z,100045.10
2018-07-17T04:17:21.937Z,100043.66
2018-07-17T04:18:28.190Z,100044.00
2018-07-17T04:19:34.202Z,100045.67
2018-07-17T04:20:40.242Z,100043.69
2018-07-17T04:21:46.228Z,100048.03
2018-07-17T04:22:52.213Z,100046.53
2018-07-17T04:23:58.230Z,100045.13
2018-07-17T04:25:04.152Z,100043.09
2018-07-17T04:26:10.145Z,100043.91
2018-07-17T04:27:16.034Z,100038.20
2018-07-17T04:28:22.066Z,100040.58
2018-07-17T04:29:28.064Z,100039.78
2018-07-17T04:30:34.462Z,100040.16
2018-07-17T04:31:40.637Z,100041.12
2018-07-17T04:32:46.835Z,100041.05
2018-07-17T04:33:53.082Z,100042.64
2018-07-17T04:34:59.843Z,100046.38
2018-07-17T04:36:05.549Z,100040.10
2018-07-17T04:37:11.530Z,100040.86
2018-07-17T04:38:17.536Z,100038.66
2018-07-17T04:39:23.721Z,100041.45
2018-07-17T04:40:29.723Z,100043.94
2018-07-17T04:41:35.802Z,100039.25
2018-07-17T04:42:41.806Z,100038.69
2018-07-17T04:43:47.782Z,100039.88
2018-07-17T04:44:54.099Z,100046.30
2018-07-17T04:46:00.434Z,100043.30
2018-07-17T04:47:06.199Z,100040.36
2018-07-17T04:48:12.712Z,100041.33
2018-07-17T04:49:18.950Z,100047.81
2018-07-17T04:50:25.261Z,100052.17
2018-07-17T04:51:31.428Z,100049.92
2018-07-17T04:52:37.460Z,100053.63
2018-07-17T04:53:43.736Z,100050.29
2018-07-17T04:54:49.900Z,100049.16
2018-07-17T04:55:55.900Z,100055.00
2018-07-17T04:57:01.968Z,100052.49
2018-07-17T04:58:07.941Z,100054.63
2018-07-17T04:59:13.946Z,100059.67
2018-07-17T05:00:19.886Z,100060.20
2018-07-17T05:01:25.889Z,100057.13
2018-07-17T05:02:31.862Z,100059.25
2018-07-17T05:03:37.855Z,100056.06
2018-07-17T05:04:43.724Z,100054.91
2018-07-17T05:05:49.733Z,100055.54
2018-07-17T05:06:55.736Z,100059.32
2018-07-17T05:08:01.734Z,100057.81
2018-07-17T05:09:07.709Z,100062.45
2018-07-17T05:10:13.732Z,100060.11
2018-07-17T05:11:19.762Z,100068.32
2018-07-17T05:12:25.766Z,100066.93
2018-07-17T05:13:31.723Z,100062.88
2018-07-17T05:14:37.684Z,100065.57
2018-07-17T05:15:43.632Z,100066.19
2018-07-17T05:16:49.639Z,100069.27
2018-07-17T05:17:55.726Z,100069.97
2018-07-17T05:19:01.624Z,100062.25
2018-07-17T05:20:07.679Z,100063.16
2018-07-17T05:21:13.820Z,100060.56
2018-07-17T05:22:19.894Z,100063.01
2018-07-17T05:23:25.915Z,100071.57
2018-07-17T05:24:31.881Z,100070.37
2018-07-17T05:25:37.845Z,100069.76
2018-07-17T05:26:43.911Z,100072.20
2018-07-17T05:27:49.904Z,100071.66
2018-07-17T05:28:55.969Z,100066.45
2018-07-17T05:30:02.168Z,100071.53
2018-07-17T05:31:08.169Z,100070.37
2018-07-17T05:32:14.246Z,100075.76
2018-07-17T05:33:20.514Z,100075.28
2018-07-17T05:34:26.537Z,100071.30
2018-07-17T05:35:32.291Z,100069.09
2018-07-17T05:36:38.500Z,100070.50
2018-07-17T05:37:44.470Z,100074.57
2018-07-17T05:38:50.462Z,100070.66
2018-07-17T05:39:56.507Z,100074.06
2018-07-17T05:41:02.490Z,100075.66
2018-07-17T05:42:08.483Z,100076.65
2018-07-17T05:43:14.531Z,100071.33
2018-07-17T05:44:20.578Z,100074.00
2018-07-17T05:45:26.880Z,100071.97
2018-07-17T05:46:32.923Z,100075.00
2018-07-17T05:47:38.931Z,100079.09
2018-07-17T05:48:45.172Z,100071.17
2018-07-17T05:49:51.191Z,100081.21
2018-07-17T05:50:57.447Z,100076.20
2018-07-17T05:52:03.527Z,100081.03
2018-07-17T05:53:09.717Z,100084.28
2018-07-17T05:54:15.979Z,100080.34
2018-07-17T05:55:21.951Z,100081.88
2018-07-17T05:56:27.902Z,100079.22
2018-07-17T05:57:33.574Z,100078.44
2018-07-17T05:58:39.561Z,100077.59
2018-07-17T05:59:45.552Z,100073.61
2018-07-17T06:00:51.872Z,100079.22
2018-07-17T06:01:57.885Z,100081.69
2018-07-17T06:03:03.514Z,100080.54
2018-07-17T06:04:09.495Z,100087.13
2018-07-17T06:05:15.148Z,100087.66
2018-07-17T06:06:21.172Z,100088.86
2018-07-17T06:07:27.157Z,100087.98
2018-07-17T06:08:33.118Z,100085.47
2018-07-17T06:09:39.135Z,100088.53
2018-07-17T06:10:45.103Z,100088.06
2018-07-17T06:11:51.102Z,100083.34
2018-07-17T06:12:57.126Z,100083.91
2018-07-17T06:14:02.909Z,100087.00
2018-07-17T06:15:08.507Z,100087.26
2018-07-17T06:16:14.498Z,100083.36
2018-07-17T06:17:20.491Z,100088.34
2018-07-17T06:18:26.471Z,100086.80
2018-07-17T06:19:32.442Z,100084.39
2018-07-17T06:20:38.424Z,100089.50
2018-07-17T06:21:44.407Z,100085.98
2018-07-17T06:22:50.405Z,100093.06
2018-07-17T06:23:56.633Z,100093.80
2018-07-17T06:25:02.667Z,100096.52
2018-07-17T06:26:08.870Z,100089.98
2018-07-17T06:27:14.467Z,100097.26
2018-07-17T06:28:20.436Z,100088.03
2018-07-17T06:29:26.395Z,100093.07
2018-07-17T06:30:32.364Z,100092.17
2018-07-17T06:31:38.024Z,100089.80
2018-07-17T06:32:44.033Z,100088.72
2018-07-17T06:33:50.008Z,100092.64
2018-07-17T06:34:55.629Z,100089.72
2018-07-17T06:36:01.657Z,100086.03
2018-07-17T06:37:07.650Z,100086.16
2018-07-17T06:38:13.363Z,100087.00
2018-07-17T06:39:19.363Z,100086.36
2018-07-17T06:40:25.349Z,100082.88
2018-07-17T06:41:31.333Z,100082.88
2018-07-17T06:42:37.323Z,100081.06
2018-07-17T06:43:43.361Z,100084.06
2018-07-17T06:44:49.316Z,100082.13
2018-07-17T06:45:54.980Z,100079.45
2018-07-17T06:47:00.940Z,100081.47
2018-07-17T06:48:06.999Z,100079.42
2018-07-17T06:49:12.958Z,100078.37
2018-07-17T06:50:18.974Z,100080.52
2018-07-17T06:51:25.135Z,100079.52
2018-07-17T06:52:30.803Z,100076.70
2018-07-17T06:53:36.796Z,100078.19
2018-07-17T06:54:42.772Z,100072.86
2018-07-17T06:55:48.756Z,100080.58
2018-07-17T06:56:54.763Z,100075.85
2018-07-17T06:58:00.790Z,100075.89
2018-07-17T06:59:06.773Z,100080.61
2018-07-17T07:00:12.777Z,100078.47
2018-07-17T07:01:18.822Z,100074.87
2018-07-17T07:02:24.835Z,100077.66
2018-07-17T07:03:30.858Z,100072.62
2018-07-17T07:04:36.827Z,100076.78
2018-07-17T07:05:42.789Z,100077.33
2018-07-17T07:06:48.495Z,100069.80
2018-07-17T07:07:54.490Z,100069.56
2018-07-17T07:09:00.520Z,100066.70
2018-07-17T07:10:06.500Z,100069.70
2018-07-17T07:11:12.572Z,100068.55
2018-07-17T07:12:18.701Z,100065.26
2018-07-17T07:13:24.688Z,100073.12
2018-07-17T07:14:30.685Z,100067.87
2018-07-17T07:15:36.305Z,100069.30
2018-07-17T07:16:42.288Z,100065.16
2018-07-17T07:17:48.271Z,100065.84
2018-07-17T07:18:54.929Z,100064.42
2018-07-17T07:20:00.899Z,100063.07
2018-07-17T07:21:06.612Z,100062.99
2018-07-17T07:22:12.568Z,100057.87
2018-07-17T07:23:18.642Z,100057.34
2018-07-17T07:24:24.761Z,100062.14
2018-07-17T07:25:30.758Z,100062.30
2018-07-17T07:26:36.431Z,100061.30
2018-07-17T07:27:42.447Z,100061.26
2018-07-17T07:28:48.196Z,100057.61
2018-07-17T07:29:53.891Z,100058.03
2018-07-17T07:30:59.643Z,100065.09
2018-07-17T07:32:05.794Z,100062.30
2018-07-17T07:33:11.837Z,100059.57
2018-07-17T07:34:17.543Z,100065.87
2018-07-17T07:35:23.227Z,100060.38
2018-07-17T07:36:29.261Z,100059.77
2018-07-17T07:37:36.222Z,100057.00
2018-07-17T07:38:41.964Z,100059.33
2018-07-17T07:39:47.651Z,100052.63
2018-07-17T07:40:53.320Z,100055.16
2018-07-17T07:41:58.991Z,100048.72
2018-07-17T07:43:04.679Z,100045.77
2018-07-17T07:44:10.087Z,100041.72
2018-07-17T07:45:15.687Z,100044.13
2018-07-17T07:46:21.663Z,100043.97
2018-07-17T07:47:27.364Z,100040.02
2018-07-17T07:48:33.098Z,100045.42
2018-07-17T07:49:39.109Z,100041.55
2018-07-17T07:50:45.066Z,100038.67
2018-07-17T07:51:50.734Z,100042.84
2018-07-17T07:52:56.416Z,100044.64
2018-07-17T07:54:02.116Z,100042.55
2018-07-17T07:55:08.159Z,100045.08
2018-07-17T07:56:13.490Z,100044.16
2018-07-17T07:57:19.167Z,100043.41
2018-07-17T07:58:24.878Z,100045.50
2018-07-17T07:59:30.559Z,100041.41
2018-07-17T08:00:36.502Z,100039.00
2018-07-17T08:01:42.259Z,100040.75
2018-07-17T08:02:47.614Z,100046.19
2018-07-17T08:03:53.667Z,100043.11
2018-07-17T08:04:59.538Z,100036.30
2018-07-17T08:06:05.241Z,100039.39
2018-07-17T08:07:10.966Z,100040.34
2018-07-17T08:08:16.653Z,100039.27
2018-07-17T08:09:22.936Z,100044.39
2018-07-17T08:10:28.607Z,100046.95
2018-07-17T08:11:34.284Z,100040.01
2018-07-17T08:12:40.031Z,100048.70
2018-07-17T08:13:45.397Z,100048.62
2018-07-17T08:14:51.062Z,100047.48
2018-07-17T08:15:56.391Z,100047.23
2018-07-17T08:17:01.713Z,100046.44
2018-07-17T08:18:07.094Z,100048.00
2018-07-17T08:19:12.446Z,100047.05
2018-07-17T08:20:18.154Z,100049.94
2018-07-17T08:21:23.852Z,100042.73
2018-07-17T08:22:29.545Z,100051.22
2018-07-17T08:23:35.287Z,100042.93
2018-07-17T08:24:40.703Z,100037.13
2018-07-17T08:25:46.387Z,100032.63
2018-07-17T08:26:52.094Z,100033.83
2018-07-17T08:27:58.058Z,100042.42
2018-07-17T08:29:03.746Z,100039.41
2018-07-17T08:30:09.451Z,100046.39
2018-07-17T08:31:14.793Z,100045.62
2018-07-17T08:32:20.493Z,100041.33
2018-07-17T08:33:25.883Z,100044.48
2018-07-17T08:34:31.591Z,100043.73
2018-07-17T08:35:37.293Z,100047.98
2018-07-17T08:36:43.000Z,100056.59
2018-07-17T08:37:48.682Z,100049.13
2018-07-17T08:38:55.318Z,100044.43
2018-07-17T08:40:01.050Z,100040.44
2018-07-17T08:41:06.726Z,100044.36
2018-07-17T08:42:12.423Z,100046.55
2018-07-17T08:43:18.157Z,100046.89
2018-07-17T08:44:23.890Z,100042.61
2018-07-17T08:45:29.565Z,100039.32
2018-07-17T08:46:35.242Z,100046.58
2018-07-17T08:47:40.930Z,100040.61
2018-07-17T08:48:46.263Z,100041.92
2018-07-17T08:49:51.628Z,100034.11
2018-07-17T08:50:56.936Z,100035.37
2018-07-17T08:52:02.652Z,100038.20
2018-07-17T08:53:08.374Z,100041.30
2018-07-17T08:54:14.080Z,100039.92
2018-07-17T08:55:19.777Z,100036.56
2018-07-17T08:56:25.535Z,100040.70
2018-07-17T08:57:31.211Z,100045.07
2018-07-17T08:58:36.601Z,100039.64
2018-07-17T08:59:42.338Z,100049.26
2018-07-17T09:00:48.011Z,100051.31
2018-07-17T09:01:53.715Z,100048.16
2018-07-17T09:02:59.411Z,100041.88
2018-07-17T09:04:04.738Z,100041.10
2018-07-17T09:05:10.472Z,100041.37
2018-07-17T09:06:16.151Z,100046.05
2018-07-17T09:07:21.518Z,100039.98
2018-07-17T09:08:27.194Z,100044.91
2018-07-17T09:09:32.869Z,100048.23
2018-07-17T09:10:38.529Z,100046.01
2018-07-17T09:11:44.206Z,100045.28
2018-07-17T09:12:49.914Z,100048.45
2018-07-17T09:13:56.282Z,100048.53
2018-07-17T09:15:02.020Z,100049.75
2018-07-17T09:16:07.716Z,100047.86
2018-07-17T09:17:13.368Z,100056.53
2018-07-17T09:18:19.009Z,100044.81
2018-07-17T09:19:24.707Z,100051.27
2018-07-17T09:20:30.423Z,100053.13
2018-07-17T09:21:36.123Z,100050.59
2018-07-17T09:22:41.988Z,100050.42
2018-07-17T09:23:47.663Z,100040.67
2018-07-17T09:24:53.375Z,100053.98
2018-07-17T09:25:58.710Z,100053.38
2018-07-17T09:27:03.711Z,100056.42
2018-07-17T09:28:09.370Z,100055.40
2018-07-17T09:29:15.261Z,100045.68
2018-07-17T09:30:20.952Z,100050.08
2018-07-17T09:31:26.649Z,100045.11
2018-07-17T09:32:32.373Z,100049.22
2018-07-17T09:33:38.122Z,100040.22
2018-07-17T09:34:43.949Z,100042.62
2018-07-17T09:35:49.662Z,100046.23
2018-07-17T09:36:55.349Z,100045.29
2018-07-17T09:38:01.011Z,100049.55
2018-07-17T09:39:06.795Z,100045.11
2018-07-17T09:40:12.652Z,100040.05
2018-07-17T09:41:18.359Z,100040.52
2018-07-17T09:42:24.259Z,100048.86
2018-07-17T09:43:29.934Z,100046.73
2018-07-17T09:44:35.686Z,100046.08
2018-07-17T09:45:41.689Z,100051.02
2018-07-17T09:46:47.380Z,100042.11
2018-07-17T09:47:53.079Z,100048.32
2018-07-17T09:48:58.777Z,100044.13
2018-07-17T09:50:03.770Z,100040.42
2018-07-17T09:51:09.132Z,100037.38
2018-07-17T09:52:14.815Z,100037.53
2018-07-17T09:53:20.499Z,100037.50
2018-07-17T09:54:26.562Z,100042.21
2018-07-17T09:55:32.437Z,100043.27
2018-07-17T09:56:38.124Z,100039.35
2018-07-17T09:57:43.826Z,100035.25
2018-07-17T09:58:49.262Z,100030.02
2018-07-17T09:59:54.944Z,100037.72
2018-07-17T10:01:00.404Z,100035.31
2018-07-17T10:03:37.291Z,100038.56
2018-07-17T10:04:43.808Z,100040.84
2018-07-17T10:05:49.845Z,100030.55
2018-07-17T10:06:55.635Z,100036.45
2018-07-17T10:08:01.520Z,100037.58
2018-07-17T10:09:07.423Z,100037.25
2018-07-17T10:10:13.326Z,100033.48
2018-07-17T10:11:19.108Z,100029.53
2018-07-17T10:12:25.003Z,100033.27
2018-07-17T10:13:32.041Z,100030.85
2018-07-17T10:14:37.895Z,100038.81
2018-07-17T10:15:43.540Z,100033.97
2018-07-17T10:16:49.331Z,100025.81
2018-07-17T10:17:55.194Z,100028.52
2018-07-17T10:19:01.028Z,100030.81
2018-07-17T10:20:06.950Z,100030.41
2018-07-17T10:21:12.955Z,100031.36
2018-07-17T10:22:18.515Z,100034.36
2018-07-17T10:23:24.227Z,100034.13
2018-07-17T10:24:30.235Z,100015.23
2018-07-17T10:25:36.075Z,100021.36
2018-07-17T10:26:41.982Z,100026.48
2018-07-17T10:27:48.253Z,100027.14
2018-07-17T10:28:54.043Z,100020.30
2018-07-17T10:30:00.191Z,100025.22
2018-07-17T10:31:06.199Z,100019.05
2018-07-17T10:32:12.079Z,100013.06
2018-07-17T10:33:18.413Z,100022.16
2018-07-17T10:34:24.433Z,100020.29
2018-07-17T10:35:30.313Z,100022.31
2018-07-17T10:36:36.165Z,100015.91
2018-07-17T10:37:41.691Z,100021.52
2018-07-17T10:38:47.449Z,100023.20
2018-07-17T10:39:53.284Z,100021.08
2018-07-17T10:40:59.807Z,100017.75
2018-07-17T10:42:05.722Z,100015.13
2018-07-17T10:43:11.539Z,100015.97
2018-07-17T10:44:17.083Z,100013.52
2018-07-17T10:45:22.827Z,100020.33
2018-07-17T10:46:29.250Z,100021.12
2018-07-17T10:47:35.025Z,100018.14
2018-07-17T10:48:41.073Z,100025.41
2018-07-17T10:49:47.032Z,100014.05
2018-07-17T10:50:52.864Z,100020.86
2018-07-17T10:51:58.723Z,100014.25
2018-07-17T10:53:04.590Z,100009.81
2018-07-17T10:54:11.197Z,100016.00
2018-07-17T10:55:16.869Z,100005.95
2018-07-17T10:56:23.393Z,100010.83
2018-07-17T10:57:29.771Z,100001.52
2018-07-17T10:58:35.569Z,100002.95
2018-07-17T10:59:41.486Z,100008.09
2018-07-17T11:00:46.944Z,100008.31
2018-07-17T11:01:52.674Z,100004.89
2018-07-17T11:02:58.400Z,100009.98
2018-07-17T11:04:04.021Z,100001.39
2018-07-17T11:05:09.465Z,100001.33
2018-07-17T11:06:15.224Z,100006.31
2018-07-17T11:07:21.092Z,99999.35
2018-07-17T11:08:26.529Z,99994.94
2018-07-17T11:09:32.580Z,99993.37
2018-07-17T11:10:38.593Z,100004.02
2018-07-17T11:11:44.522Z,100000.16
2018-07-17T11:12:50.320Z,99996.55
2018-07-17T11:13:56.159Z,99999.00
2018-07-17T11:15:02.000Z,99994.05
2018-07-17T11:16:07.934Z,99992.30
2018-07-17T11:17:13.717Z,99987.73
2018-07-17T11:18:19.584Z,99989.50
2018-07-17T11:19:25.421Z,99987.58
2018-07-17T11:20:30.615Z,99987.70
2018-07-17T11:21:36.479Z,99974.68
2018-07-17T11:22:41.937Z,99974.94
2018-07-17T11:23:47.664Z,99995.03
2018-07-17T11:24:53.489Z,99985.82
2018-07-17T11:25:59.289Z,99992.69
2018-07-17T11:27:04.502Z,99985.98
2018-07-17T11:28:10.403Z,99980.28
2018-07-17T11:29:16.275Z,99981.98
2018-07-17T11:30:22.597Z,99981.24
2018-07-17T11:31:28.998Z,99982.41
2018-07-17T11:32:34.803Z,99986.66
2018-07-17T11:33:40.589Z,99980.20
2018-07-17T11:34:46.381Z,99976.23
2018-07-17T11:35:52.518Z,99970.05
2018-07-17T11:36:57.959Z,99968.72
2018-07-17T11:38:03.695Z,99961.81
2018-07-17T11:39:09.539Z,99967.03
2018-07-17T11:40:16.077Z,99961.23
2018-07-17T11:41:23.192Z,99957.53
2018-07-17T11:42:29.063Z,99964.37
2018-07-17T11:43:34.911Z,99973.47
2018-07-17T11:44:40.816Z,99964.59
2018-07-17T11:45:46.661Z,99966.17
2018-07-17T11:46:52.448Z,99966.88
2018-07-17T11:47:58.450Z,99964.05
2018-07-17T11:49:04.008Z,99970.66
2018-07-17T11:50:09.715Z,99961.81
2018-07-17T11:51:16.768Z,99960.17
2018-07-17T11:52:22.747Z,99958.91
2018-07-17T11:53:28.564Z,99963.70
2018-07-17T11:54:34.403Z,99954.00
2018-07-17T11:55:40.238Z,99961.43
2018-07-17T11:56:46.088Z,99960.81
2018-07-17T11:57:51.943Z,99963.30
2018-07-17T11:58:57.855Z,99956.24
2018-07-17T12:00:03.724Z,99954.84
2018-07-17T12:01:09.492Z,99957.78
2018-07-17T12:02:15.329Z,99951.70
2018-07-17T12:03:21.162Z,99947.42
2018-07-17T12:04:26.978Z,99938.37
2018-07-17T12:05:32.848Z,99943.37
2018-07-17T12:06:38.816Z,99951.52
2018-07-17T12:07:44.637Z,99946.50
2018-07-17T12:08:51.159Z,99940.79
2018-07-17T12:09:56.955Z,99953.75
2018-07-17T12:11:02.799Z,99936.10
2018-07-17T12:12:08.650Z,99942.77
2018-07-17T12:13:14.553Z,99938.49
2018-07-17T12:14:20.354Z,99931.89
2018-07-17T12:15:26.239Z,99932.81
2018-07-17T12:16:31.898Z,99933.78
2018-07-17T12:17:37.422Z,99933.25
2018-07-17T12:18:43.243Z,99927.80
2018-07-17T12:19:49.192Z,99925.51
2018-07-17T12:20:56.038Z,99929.93
2018-07-17T12:22:01.935Z,99926.37
2018-07-17T12:23:07.727Z,99932.28
2018-07-17T12:24:13.746Z,99922.12
2018-07-17T12:25:19.775Z,99922.36
2018-07-17T12:26:25.785Z,99926.65
2018-07-17T12:27:32.473Z,99925.26
2018-07-17T12:28:38.414Z,99927.25
2018-07-17T12:29:43.871Z,99931.11
2018-07-17T12:30:49.775Z,99929.97
2018-07-17T12:31:55.576Z,99930.02
2018-07-17T12:33:01.403Z,99928.52
2018-07-17T12:34:07.504Z,99930.27
2018-07-17T12:35:13.280Z,99924.95
2018-07-17T12:36:18.767Z,99922.25